createdAt,value
2023-01-24T00:03:18.648Z,68.25
2023-01-24T00:06:40.225Z,68.93
2023-01-24T00:10:01.957Z,68.02
2023-01-24T00:13:24.706Z,68.20
2023-01-24T00:16:46.482Z,67.81
2023-01-24T00:20:09.402Z,67.68
2023-01-24T00:23:31.154Z,68.33
2023-01-24T00:26:53.011Z,67.23
2023-01-24T00:30:20.972Z,67.32
2023-01-24T00:33:45.094Z,67.22
2023-01-24T00:37:06.721Z,67.09
2023-01-24T00:40:28.406Z,67.61
2023-01-24T00:43:49.771Z,66.87
2023-01-24T00:47:14.375Z,68.04
2023-01-24T00:50:36.433Z,67.67
2023-01-24T00:53:58.208Z,67.66
2023-01-24T00:57:22.321Z,67.47
2023-01-24T01:00:44.119Z,67.25
2023-01-24T01:04:07.662Z,67.51
2023-01-24T01:07:29.518Z,67.98
2023-01-24T01:10:50.750Z,68.18
2023-01-24T01:14:12.614Z,68.59
2023-01-24T01:17:34.455Z,68.23
2023-01-24T01:20:57.075Z,68.70
2023-01-24T01:24:18.649Z,67.98
2023-01-24T01:27:41.402Z,68.15
2023-01-24T01:31:03.633Z,67.99
2023-01-24T01:34:25.667Z,68.02
2023-01-24T01:37:48.719Z,68.10
2023-01-24T01:41:12.249Z,68.34
2023-01-24T01:44:41.531Z,68.24
2023-01-24T01:48:06.954Z,68.23
2023-01-24T01:51:34.196Z,68.15
2023-01-24T01:55:04.153Z,67.77
2023-01-24T01:58:25.982Z,68.29
2023-01-24T02:01:50.602Z,68.93
2023-01-24T02:05:15.599Z,68.93
2023-01-24T02:08:37.453Z,68.37
2023-01-24T02:12:05.024Z,69.48
2023-01-24T02:15:44.032Z,69.44
2023-01-24T02:19:05.698Z,69.39
2023-01-24T02:22:36.918Z,69.65
2023-01-24T02:26:07.506Z,68.90
2023-01-24T02:29:29.486Z,69.20
2023-01-24T02:32:51.304Z,69.61
2023-01-24T02:36:22.610Z,69.88
2023-01-24T02:39:49.939Z,70.01
2023-01-24T02:43:15.203Z,69.74
2023-01-24T02:46:38.189Z,69.96
2023-01-24T02:50:00.383Z,69.45
2023-01-24T02:53:31.392Z,69.90
2023-01-24T02:57:11.050Z,69.46
2023-01-24T03:00:34.176Z,70.26
2023-01-24T03:03:58.175Z,69.52
2023-01-24T03:07:19.590Z,69.96
2023-01-24T03:10:47.804Z,69.98
2023-01-24T03:14:28.777Z,69.68
2023-01-24T03:18:08.955Z,68.95
2023-01-24T03:21:47.774Z,69.27
2023-01-24T03:25:27.454Z,70.01
2023-01-24T03:29:06.097Z,69.74
2023-01-24T03:32:44.962Z,69.18
2023-01-24T03:36:14.706Z,68.75
2023-01-24T03:39:54.746Z,69.20
2023-01-24T03:43:16.363Z,69.30
2023-01-24T03:46:40.980Z,68.88
2023-01-24T03:50:21.050Z,69.02
2023-01-24T03:53:44.019Z,69.98
2023-01-24T03:57:05.792Z,69.83
2023-01-24T04:00:27.704Z,69.33
2023-01-24T04:03:53.377Z,70.09
2023-01-24T04:07:25.730Z,69.32
2023-01-24T04:10:51.813Z,69.40
2023-01-24T04:14:13.736Z,69.59
2023-01-24T04:17:49.871Z,69.29
2023-01-24T04:21:12.923Z,69.62
2023-01-24T04:24:34.753Z,69.00
2023-01-24T04:27:58.460Z,69.17
2023-01-24T04:31:23.327Z,69.26
2023-01-24T04:35:17.791Z,69.48
2023-01-24T04:38:45.432Z,69.11
2023-01-24T04:42:19.504Z,69.14
2023-01-24T04:45:43.255Z,69.54
2023-01-24T04:49:08.708Z,69.06
2023-01-24T04:52:37.096Z,69.32
2023-01-24T04:56:04.845Z,69.18
2023-01-24T04:59:28.326Z,69.52
2023-01-24T05:02:53.747Z,69.10
2023-01-24T05:06:17.119Z,69.10
2023-01-24T05:09:38.953Z,68.71
2023-01-24T05:13:03.900Z,68.70
2023-01-24T05:16:27.204Z,68.52
2023-01-24T05:19:50.443Z,68.72
2023-01-24T05:23:12.723Z,68.11
2023-01-24T05:26:38.268Z,68.38
2023-01-24T05:30:00.193Z,68.64
2023-01-24T05:33:22.001Z,68.06
2023-01-24T05:36:45.169Z,68.08
2023-01-24T05:40:09.606Z,68.27
2023-01-24T05:43:32.768Z,67.58
2023-01-24T05:46:54.470Z,67.61
2023-01-24T05:50:20.359Z,67.63
2023-01-24T05:54:03.211Z,67.89
2023-01-24T05:57:47.050Z,67.85
2023-01-24T06:01:17.327Z,67.66
2023-01-24T06:04:39.787Z,67.81
2023-01-24T06:08:01.613Z,68.57
2023-01-24T06:11:27.457Z,67.71
2023-01-24T06:14:59.940Z,67.45
2023-01-24T06:18:21.873Z,67.87
2023-01-24T06:21:47.112Z,68.36
2023-01-24T06:25:22.701Z,67.78
2023-01-24T06:28:46.284Z,68.03
2023-01-24T06:32:19.638Z,67.87
2023-01-24T06:35:50.402Z,68.28
2023-01-24T06:39:16.427Z,67.72
2023-01-24T06:42:38.649Z,68.41
2023-01-24T06:46:01.795Z,67.93
2023-01-24T06:49:23.498Z,68.53
2023-01-24T06:52:47.379Z,68.56
2023-01-24T06:56:09.840Z,68.65
2023-01-24T06:59:31.265Z,68.56
2023-01-24T07:03:01.591Z,68.95
2023-01-24T07:06:24.166Z,69.03
2023-01-24T07:09:45.631Z,68.68
2023-01-24T07:13:07.780Z,69.16
2023-01-24T07:16:29.346Z,69.33
2023-01-24T07:19:53.574Z,68.88
2023-01-24T07:23:22.524Z,69.55
2023-01-24T07:26:45.731Z,68.40
2023-01-24T07:30:08.566Z,68.93
2023-01-24T07:33:30.371Z,69.34
2023-01-24T07:36:53.446Z,69.49
2023-01-24T07:40:15.114Z,70.11
2023-01-24T07:43:36.919Z,70.07
2023-01-24T07:46:58.690Z,69.32
2023-01-24T07:50:20.202Z,69.25
2023-01-24T07:53:42.975Z,69.90
2023-01-24T07:57:04.502Z,69.05
2023-01-24T08:00:26.530Z,69.36
2023-01-24T08:03:48.292Z,69.35
2023-01-24T08:07:18.639Z,69.23
2023-01-24T08:10:41.794Z,68.57
2023-01-24T08:14:03.367Z,68.26
2023-01-24T08:17:25.197Z,68.14
2023-01-24T08:20:46.757Z,68.75
2023-01-24T08:24:08.984Z,68.19
2023-01-24T08:27:32.548Z,68.45
2023-01-24T08:30:54.964Z,68.54
2023-01-24T08:34:16.802Z,68.20
2023-01-24T08:37:38.138Z,67.81
2023-01-24T08:40:59.862Z,68.18
2023-01-24T08:44:22.947Z,68.07
2023-01-24T08:47:44.700Z,68.45
2023-01-24T08:51:07.848Z,67.87
2023-01-24T08:54:31.652Z,67.68
2023-01-24T08:57:53.483Z,67.48
2023-01-24T09:01:16.359Z,67.26
2023-01-24T09:04:37.830Z,67.81
2023-01-24T09:07:59.689Z,67.38
2023-01-24T09:11:21.254Z,67.30
2023-01-24T09:14:43.098Z,68.04
2023-01-24T09:18:06.374Z,66.79
2023-01-24T09:21:28.088Z,67.51
2023-01-24T09:24:49.401Z,67.53
2023-01-24T09:28:11.440Z,66.77
2023-01-24T09:31:33.516Z,66.90
2023-01-24T09:34:56.509Z,67.18
2023-01-24T09:38:17.841Z,66.79
2023-01-24T09:42:09.672Z,66.71
2023-01-24T09:45:37.633Z,66.94
2023-01-24T09:49:12.741Z,66.61
2023-01-24T09:52:39.464Z,66.73
2023-01-24T09:56:02.380Z,66.50
2023-01-24T09:59:25.917Z,66.33
2023-01-24T10:02:47.657Z,67.10
2023-01-24T10:06:14.885Z,66.86
2023-01-24T10:09:50.214Z,67.08
2023-01-24T10:13:26.969Z,66.50
2023-01-24T10:17:03.409Z,66.45
2023-01-24T10:20:45.198Z,66.33
2023-01-24T10:24:14.592Z,66.60
2023-01-24T10:27:44.340Z,66.34
2023-01-24T10:31:15.473Z,66.25
2023-01-24T10:34:40.425Z,65.92
2023-01-24T10:38:07.628Z,66.66
2023-01-24T10:41:33.414Z,66.00
2023-01-24T10:45:01.345Z,66.06
2023-01-24T10:48:39.917Z,65.85
2023-01-24T10:52:14.696Z,65.58
2023-01-24T10:55:39.183Z,65.86
2023-01-24T10:59:05.445Z,65.54
2023-01-24T11:02:28.736Z,64.88
2023-01-24T11:05:52.810Z,65.19
2023-01-24T11:09:17.049Z,64.94
2023-01-24T11:12:38.844Z,64.74
2023-01-24T11:16:04.947Z,64.79
2023-01-24T11:19:33.324Z,64.68
2023-01-24T11:23:04.024Z,64.18
2023-01-24T11:26:28.622Z,64.53
2023-01-24T11:30:07.932Z,64.53
2023-01-24T11:33:41.305Z,64.28
2023-01-24T11:37:27.666Z,64.17
2023-01-24T11:41:00.562Z,64.42
2023-01-24T11:44:40.634Z,65.46
2023-01-24T11:48:10.391Z,65.36
2023-01-24T11:51:43.642Z,65.35
2023-01-24T11:55:15.949Z,64.77
2023-01-24T11:58:58.822Z,64.83
2023-01-24T12:02:42.902Z,64.54
2023-01-24T12:06:13.566Z,64.46
2023-01-24T12:09:41.770Z,64.37
2023-01-24T12:13:20.681Z,65.04
2023-01-24T12:16:56.072Z,64.93
2023-01-24T12:20:41.810Z,64.30
2023-01-24T12:24:10.172Z,64.74
2023-01-24T12:27:36.239Z,64.81
2023-01-24T12:31:02.881Z,64.88
2023-01-24T12:34:41.761Z,65.16
2023-01-24T12:38:09.210Z,65.03
2023-01-24T12:41:34.182Z,65.42
2023-01-24T12:45:02.459Z,65.11
2023-01-24T12:48:34.939Z,65.65
2023-01-24T12:52:03.570Z,65.74
2023-01-24T12:55:28.035Z,65.95
2023-01-24T12:58:54.011Z,66.55
2023-01-24T13:02:39.061Z,67.21
2023-01-24T13:06:11.775Z,66.83
2023-01-24T13:09:43.935Z,67.24
2023-01-24T13:13:07.455Z,67.31
2023-01-24T13:16:52.712Z,67.08
2023-01-24T13:20:26.559Z,67.18
2023-01-24T13:24:07.661Z,67.46
2023-01-24T13:27:40.792Z,67.11
2023-01-24T13:31:15.917Z,66.74
2023-01-24T13:34:43.162Z,67.03
2023-01-24T13:38:07.742Z,67.11
2023-01-24T13:41:39.572Z,67.26
2023-01-24T13:45:42.333Z,67.61
2023-01-24T13:49:04.565Z,67.54
2023-01-24T13:52:44.747Z,68.53
2023-01-24T13:56:06.822Z,68.38
2023-01-24T13:59:29.976Z,68.42
2023-01-24T14:03:20.487Z,68.31
2023-01-24T14:06:44.530Z,67.85
2023-01-24T14:10:08.243Z,67.84
2023-01-24T14:13:55.640Z,67.44
2023-01-24T14:17:50.611Z,67.95
2023-01-24T14:21:16.068Z,67.67
2023-01-24T14:24:39.772Z,68.01
2023-01-24T14:28:03.163Z,67.57
2023-01-24T14:31:27.468Z,68.06
2023-01-24T14:34:58.825Z,67.86
2023-01-24T14:38:20.776Z,67.56
2023-01-24T14:41:42.996Z,67.72
2023-01-24T14:45:05.086Z,68.21
2023-01-24T14:48:27.434Z,68.11
2023-01-24T14:51:50.539Z,68.29
2023-01-24T14:55:43.283Z,68.84
2023-01-24T14:59:13.043Z,68.35
2023-01-24T15:02:36.627Z,68.69
2023-01-24T15:06:03.340Z,68.87
2023-01-24T15:09:26.532Z,69.12
2023-01-24T15:12:48.048Z,68.93
2023-01-24T15:16:17.597Z,69.04
2023-01-24T15:19:39.463Z,68.99
2023-01-24T15:23:03.935Z,68.99
2023-01-24T15:26:37.916Z,69.16
2023-01-24T15:30:18.678Z,68.99
2023-01-24T15:33:42.871Z,68.99
2023-01-24T15:37:04.982Z,68.98
2023-01-24T15:40:26.542Z,68.80
2023-01-24T15:44:02.947Z,69.22
2023-01-24T15:47:44.351Z,69.12
2023-01-24T15:51:10.511Z,69.60
2023-01-24T15:54:32.841Z,69.37
2023-01-24T15:57:54.705Z,69.32
2023-01-24T16:01:18.087Z,69.39
2023-01-24T16:04:39.586Z,69.40
2023-01-24T16:08:01.571Z,69.24
2023-01-24T16:11:23.503Z,69.40
2023-01-24T16:14:58.767Z,68.92
2023-01-24T16:18:30.503Z,69.50
2023-01-24T16:21:52.957Z,69.37
2023-01-24T16:25:15.675Z,69.22
2023-01-24T16:28:37.163Z,69.16
2023-01-24T16:31:59.622Z,69.09
2023-01-24T16:35:23.492Z,69.47
2023-01-24T16:38:45.947Z,69.50
2023-01-24T16:42:07.567Z,69.85
2023-01-24T16:45:29.529Z,69.42
2023-01-24T16:48:51.192Z,69.83
2023-01-24T16:52:19.540Z,69.76
2023-01-24T16:55:42.079Z,69.76
2023-01-24T16:59:03.965Z,69.80
2023-01-24T17:02:25.895Z,69.58
2023-01-24T17:05:47.732Z,69.70
2023-01-24T17:09:11.316Z,69.61
2023-01-24T17:12:32.856Z,69.27
2023-01-24T17:15:54.760Z,69.35
2023-01-24T17:19:17.064Z,69.59
2023-01-24T17:22:39.002Z,69.67
2023-01-24T17:26:07.029Z,69.79
2023-01-24T17:29:29.369Z,69.78
2023-01-24T17:32:51.019Z,69.76
2023-01-24T17:36:14.133Z,69.67
2023-01-24T17:39:35.627Z,69.70
2023-01-24T17:42:58.903Z,70.50
2023-01-24T17:46:20.458Z,70.27
2023-01-24T17:49:42.235Z,70.09
2023-01-24T17:53:03.342Z,70.11
2023-01-24T17:56:25.004Z,69.99
2023-01-24T17:59:48.151Z,70.00
2023-01-24T18:03:10.874Z,69.83
2023-01-24T18:06:32.679Z,69.86
2023-01-24T18:09:54.298Z,70.02
2023-01-24T18:13:16.281Z,70.14
2023-01-24T18:16:39.877Z,70.26
2023-01-24T18:20:03.378Z,70.32
2023-01-24T18:23:25.373Z,70.30
2023-01-24T18:26:47.414Z,70.08
2023-01-24T18:30:10.793Z,70.16
2023-01-24T18:33:34.317Z,70.13
2023-01-24T18:36:56.239Z,70.01
2023-01-24T18:40:20.122Z,70.06
2023-01-24T18:43:41.866Z,70.28
2023-01-24T18:47:03.754Z,70.47
2023-01-24T18:50:28.303Z,70.64
2023-01-24T18:53:53.115Z,70.95
2023-01-24T18:57:14.927Z,70.60
2023-01-24T19:00:36.956Z,70.93
2023-01-24T19:03:58.924Z,70.98
2023-01-24T19:07:22.038Z,70.97
2023-01-24T19:10:44.082Z,70.88
2023-01-24T19:14:07.229Z,71.30
2023-01-24T19:17:29.395Z,71.31
2023-01-24T19:20:50.952Z,71.38
2023-01-24T19:24:14.714Z,71.42
2023-01-24T19:27:36.275Z,71.19
2023-01-24T19:30:57.977Z,71.01
2023-01-24T19:34:19.753Z,71.15
2023-01-24T19:37:41.702Z,71.25
2023-01-24T19:41:06.505Z,71.25
2023-01-24T19:44:28.571Z,71.62
2023-01-24T19:47:51.560Z,71.30
2023-01-24T19:51:13.311Z,71.04
2023-01-24T19:54:35.033Z,71.58
2023-01-24T19:57:57.690Z,71.60
2023-01-24T20:01:21.551Z,71.97
2023-01-24T20:04:52.090Z,71.65
2023-01-24T20:08:14.557Z,72.26
2023-01-24T20:11:36.381Z,72.10
2023-01-24T20:14:59.263Z,72.87
2023-01-24T20:18:21.025Z,72.13
2023-01-24T20:21:44.182Z,72.12
2023-01-24T20:25:17.601Z,72.54
2023-01-24T20:28:40.941Z,72.24
2023-01-24T20:32:11.791Z,72.38
2023-01-24T20:35:34.328Z,72.45
2023-01-24T20:38:57.080Z,72.33
2023-01-24T20:42:18.769Z,72.21
2023-01-24T20:45:40.370Z,72.41
2023-01-24T20:49:03.547Z,72.22
2023-01-24T20:52:25.306Z,72.35
2023-01-24T20:55:47.319Z,72.31
2023-01-24T20:59:10.411Z,72.31
2023-01-24T21:02:32.076Z,72.21
2023-01-24T21:05:55.207Z,72.38
2023-01-24T21:09:17.055Z,71.88
2023-01-24T21:12:38.370Z,72.35
2023-01-24T21:16:07.553Z,72.48
2023-01-24T21:19:29.892Z,71.80
2023-01-24T21:22:53.101Z,72.38
2023-01-24T21:26:16.243Z,72.46
2023-01-24T21:29:37.681Z,72.05
2023-01-24T21:32:59.096Z,71.99
2023-01-24T21:36:22.574Z,72.20
2023-01-24T21:39:45.653Z,72.46
2023-01-24T21:43:07.719Z,72.63
2023-01-24T21:46:29.943Z,72.16
2023-01-24T21:49:51.514Z,72.44
2023-01-24T21:53:32.832Z,72.86
2023-01-24T21:57:29.368Z,72.83
2023-01-24T22:00:51.634Z,72.35
2023-01-24T22:04:13.379Z,72.33
2023-01-24T22:07:35.108Z,72.77
2023-01-24T22:10:58.904Z,72.79
2023-01-24T22:14:23.978Z,72.78
2023-01-24T22:17:46.264Z,72.90
2023-01-24T22:21:16.074Z,72.64
2023-01-24T22:24:50.245Z,73.03
2023-01-24T22:28:17.580Z,72.71
2023-01-24T22:31:41.360Z,72.76
2023-01-24T22:35:03.067Z,73.21
2023-01-24T22:38:27.211Z,72.70
2023-01-24T22:41:48.826Z,73.11
2023-01-24T22:45:11.294Z,72.50
2023-01-24T22:48:34.903Z,72.45
2023-01-24T22:51:56.189Z,72.58
2023-01-24T22:55:18.315Z,72.59
2023-01-24T22:58:40.082Z,72.26
2023-01-24T23:02:02.220Z,72.41
2023-01-24T23:05:25.101Z,72.61
2023-01-24T23:08:50.791Z,72.73
2023-01-24T23:12:26.427Z,72.42
2023-01-24T23:16:06.390Z,72.62
2023-01-24T23:19:51.526Z,72.53
2023-01-24T23:23:14.326Z,72.69
2023-01-24T23:26:35.630Z,72.19
2023-01-24T23:30:08.965Z,72.56
2023-01-24T23:33:35.000Z,72.43
2023-01-24T23:36:56.532Z,72.34
2023-01-24T23:40:19.989Z,72.43
2023-01-24T23:43:41.711Z,73.13
2023-01-24T23:47:03.487Z,73.00
2023-01-24T23:50:24.854Z,73.49
2023-01-24T23:53:46.760Z,73.52
2023-01-24T23:57:09.538Z,73.41
